Startpagina
METAR-TAF:

METAR-TAF

Vliegvelden :

Productieplatform

P11-b, Nederland

breedte: 52-21-36N, lengte: 3-20-30E, hoogte: 24 m

Actueel weer

Dit bericht is 18 minuten geleden gemaakt, om 18:25 UTC
Wind 17 kt uit het noordnoordoosten, variërend tussen het noorden en het oostnoordoosten
Temperatuur 14°C
Vochtigheid 77%
Druk 1014 hPa
Zicht 10 km of meer

METAR: EHPG 211825Z AUTO 03017KT 360V060 9999 NSC 14/10 Q1014

Tijdstip: 20:43 (18:43 UTC)


TAF: ontbreekt

Waarnemingen en weersverwachtingen van meer dan 4000 vliegvelden (METAR en TAF).

De beschikbare stations zijn de gele en rode punten op de kaart.

Ga met uw muis naar het station om de naam te zien.

Klik dan om waarnemingen en weersverwachtingen te zien.

kaart wijzigen: klik op de groene knoppen met een zwart kruis om in te zoomen, op de groene knop met een streepje om uit te zoomen of op de groene pijlen voor aangrenzende kaarten.


METAR-TAF: